createdAt,value
2023-05-10T00:00:33.092Z,95070.31
2023-05-10T00:01:35.081Z,95064.78
2023-05-10T00:02:38.155Z,95073.09
2023-05-10T00:03:41.174Z,95065.28
2023-05-10T00:04:44.081Z,95069.28
2023-05-10T00:05:45.969Z,95067.78
2023-05-10T00:06:48.843Z,95067.78
2023-05-10T00:07:50.656Z,95069.03
2023-05-10T00:08:53.513Z,95062.25
2023-05-10T00:09:55.313Z,95061.50
2023-05-10T00:10:58.127Z,95063.00
2023-05-10T00:11:59.951Z,95067.78
2023-05-10T00:13:02.830Z,95062.25
2023-05-10T00:14:04.910Z,95065.00
2023-05-10T00:15:10.979Z,95068.53
2023-05-10T00:16:14.108Z,95062.72
2023-05-10T00:17:17.129Z,95059.47
2023-05-10T00:18:18.905Z,95063.47
2023-05-10T00:19:21.829Z,95057.69
2023-05-10T00:20:23.870Z,95068.78
2023-05-10T00:21:26.706Z,95054.94
2023-05-10T00:22:28.622Z,95058.94
2023-05-10T00:23:31.436Z,95056.44
2023-05-10T00:24:33.331Z,95052.16
2023-05-10T00:25:36.170Z,95056.16
2023-05-10T00:26:37.984Z,95049.88
2023-05-10T00:27:40.958Z,95054.66
2023-05-10T00:28:42.917Z,95049.59
2023-05-10T00:29:45.781Z,95047.59
2023-05-10T00:30:49.252Z,95051.34
2023-05-10T00:31:52.131Z,95054.09
2023-05-10T00:32:54.076Z,95054.09
2023-05-10T00:33:57.111Z,95054.09
2023-05-10T00:34:59.482Z,95048.56
2023-05-10T00:36:03.524Z,95051.81
2023-05-10T00:37:05.728Z,95047.53
2023-05-10T00:38:09.600Z,95049.56
2023-05-10T00:39:12.166Z,95054.59
2023-05-10T00:40:16.022Z,95047.09
2023-05-10T00:41:22.753Z,95043.06
2023-05-10T00:42:25.640Z,95053.66
2023-05-10T00:43:29.348Z,95049.38
2023-05-10T00:44:32.498Z,95047.84
2023-05-10T00:45:36.571Z,95051.38
2023-05-10T00:46:40.916Z,95041.09
2023-05-10T00:47:43.250Z,95051.38
2023-05-10T00:48:47.149Z,95036.28
2023-05-10T00:49:49.154Z,95046.63
2023-05-10T00:50:52.074Z,95043.06
2023-05-10T00:51:54.133Z,95042.03
2023-05-10T00:52:57.417Z,95044.34
2023-05-10T00:53:59.604Z,95040.81
2023-05-10T00:55:04.274Z,95043.56
2023-05-10T00:56:07.305Z,95035.97
2023-05-10T00:57:10.837Z,95047.09
2023-05-10T00:58:13.367Z,95045.09
2023-05-10T00:59:16.620Z,95037.25
2023-05-10T01:00:19.640Z,95040.81
2023-05-10T01:01:22.710Z,95042.03
2023-05-10T01:02:26.381Z,95030.97
2023-05-10T01:03:30.112Z,95046.81
2023-05-10T01:04:32.307Z,95040.53
2023-05-10T01:05:35.384Z,95041.78
2023-05-10T01:06:37.352Z,95043.31
2023-05-10T01:07:40.163Z,95044.03
2023-05-10T01:08:42.222Z,95047.03
2023-05-10T01:09:45.179Z,95039.50
2023-05-10T01:10:49.973Z,95036.75
2023-05-10T01:11:52.937Z,95037.50
2023-05-10T01:12:55.071Z,95043.03
2023-05-10T01:13:59.756Z,95038.72
2023-05-10T01:15:02.682Z,95035.97
2023-05-10T01:16:07.480Z,95035.97
2023-05-10T01:17:10.792Z,95037.94
2023-05-10T01:18:15.392Z,95036.13
2023-05-10T01:19:21.331Z,95040.16
2023-05-10T01:20:25.383Z,95046.19
2023-05-10T01:21:34.220Z,95037.13
2023-05-10T01:22:59.761Z,95037.13
2023-05-10T01:24:34.012Z,95046.19
2023-05-10T01:25:56.422Z,95039.91
2023-05-10T01:27:32.780Z,95031.31
2023-05-10T01:28:59.538Z,95034.84
2023-05-10T01:30:34.488Z,95036.66
2023-05-10T01:32:07.829Z,95035.34
2023-05-10T01:33:16.147Z,95039.34
2023-05-10T01:34:24.738Z,95039.84
2023-05-10T01:35:36.702Z,95036.31
2023-05-10T01:36:46.597Z,95030.78
2023-05-10T01:37:54.653Z,95032.03
2023-05-10T01:39:02.955Z,95042.34
2023-05-10T01:40:15.423Z,95039.56
2023-05-10T01:41:21.033Z,95038.03
2023-05-10T01:42:33.022Z,95038.78
2023-05-10T01:43:42.634Z,95035.78
2023-05-10T01:44:52.243Z,95035.78
2023-05-10T01:46:02.233Z,95036.53
2023-05-10T01:47:11.834Z,95034.25
2023-05-10T01:48:16.058Z,95038.28
2023-05-10T01:49:25.127Z,95037.03
2023-05-10T01:50:31.564Z,95035.50
2023-05-10T01:51:41.490Z,95038.28
2023-05-10T01:52:49.111Z,95039.50
2023-05-10T01:53:55.777Z,95039.50
2023-05-10T01:55:03.037Z,95032.47
2023-05-10T01:56:07.541Z,95040.78
2023-05-10T01:57:13.137Z,95039.25
2023-05-10T01:58:19.153Z,95037.72
2023-05-10T01:59:23.139Z,95041.72
2023-05-10T02:00:28.131Z,95037.72
2023-05-10T02:01:30.868Z,95030.66
2023-05-10T02:02:37.343Z,95040.78
2023-05-10T02:03:43.939Z,95037.72
2023-05-10T02:04:48.313Z,95044.84
2023-05-10T02:05:51.931Z,95046.59
2023-05-10T02:06:59.313Z,95042.56
2023-05-10T02:08:04.050Z,95039.50
2023-05-10T02:09:09.021Z,95043.25
2023-05-10T02:10:12.601Z,95037.19
2023-05-10T02:11:16.523Z,95043.47
2023-05-10T02:12:20.077Z,95045.03
2023-05-10T02:13:25.399Z,95036.75
2023-05-10T02:14:28.627Z,95038.28
2023-05-10T02:15:32.120Z,95043.81
2023-05-10T02:16:36.274Z,95037.50
2023-05-10T02:17:41.137Z,95043.81
2023-05-10T02:18:45.937Z,95048.56
2023-05-10T02:19:49.743Z,95033.19
2023-05-10T02:20:54.683Z,95040.78
2023-05-10T02:21:58.718Z,95046.31
2023-05-10T02:23:03.987Z,95041.53
2023-05-10T02:24:09.571Z,95042.72
2023-05-10T02:25:14.277Z,95045.22
2023-05-10T02:26:18.931Z,95045.22
2023-05-10T02:27:21.612Z,95049.22
2023-05-10T02:28:26.305Z,95047.69
2023-05-10T02:29:29.354Z,95046.94
2023-05-10T02:30:34.328Z,95047.69
2023-05-10T02:31:36.663Z,95042.16
2023-05-10T02:32:41.899Z,95039.13
2023-05-10T02:33:47.033Z,95047.94
2023-05-10T02:34:52.761Z,95041.66
2023-05-10T02:35:55.780Z,95039.34
2023-05-10T02:36:59.593Z,95042.88
2023-05-10T02:38:02.316Z,95045.66
2023-05-10T02:39:10.563Z,95051.19
2023-05-10T02:40:14.069Z,95047.94
2023-05-10T02:41:17.201Z,95048.41
2023-05-10T02:42:21.272Z,95047.19
2023-05-10T02:43:26.103Z,95045.66
2023-05-10T02:44:32.017Z,95044.13
2023-05-10T02:45:39.868Z,95050.91
2023-05-10T02:46:41.950Z,95045.38
2023-05-10T02:47:45.476Z,95042.59
2023-05-10T02:48:48.856Z,95052.16
2023-05-10T02:49:51.774Z,95046.63
2023-05-10T02:50:57.179Z,95052.91
2023-05-10T02:52:03.525Z,95040.34
2023-05-10T02:53:11.051Z,95047.84
2023-05-10T02:54:17.585Z,95049.88
2023-05-10T02:55:23.442Z,95048.38
2023-05-10T02:56:31.020Z,95046.06
2023-05-10T02:57:35.098Z,95051.59
2023-05-10T02:58:38.094Z,95050.84
2023-05-10T02:59:40.936Z,95051.59
2023-05-10T03:00:43.802Z,95054.84
2023-05-10T03:01:47.373Z,95046.56
2023-05-10T03:02:50.290Z,95054.09
2023-05-10T03:03:53.557Z,95053.34
2023-05-10T03:04:56.683Z,95055.34
2023-05-10T03:05:59.485Z,95054.09
2023-05-10T03:07:02.905Z,95053.34
2023-05-10T03:08:05.877Z,95053.81
2023-05-10T03:09:10.358Z,95055.34
2023-05-10T03:10:12.741Z,95058.13
2023-05-10T03:11:30.909Z,95052.59
2023-05-10T03:12:51.861Z,95051.06
2023-05-10T03:14:12.358Z,95053.81
2023-05-10T03:15:21.197Z,95052.03
2023-05-10T03:16:29.315Z,95063.09
2023-05-10T03:17:36.942Z,95060.78
2023-05-10T03:18:45.826Z,95058.03
2023-05-10T03:19:54.849Z,95054.50
2023-05-10T03:21:01.688Z,95065.13
2023-05-10T03:22:09.780Z,95057.56
2023-05-10T03:23:19.337Z,95063.09
2023-05-10T03:24:24.317Z,95056.50
2023-05-10T03:25:27.517Z,95055.25
2023-05-10T03:26:30.317Z,95064.81
2023-05-10T03:27:50.116Z,95064.81
2023-05-10T03:28:54.322Z,95062.03
2023-05-10T03:29:58.461Z,95064.06
2023-05-10T03:31:01.293Z,95065.56
2023-05-10T03:32:06.327Z,95061.28
2023-05-10T03:33:08.933Z,95062.53
2023-05-10T03:34:15.760Z,95062.53
2023-05-10T03:35:19.104Z,95064.06
2023-05-10T03:36:22.115Z,95061.75
2023-05-10T03:37:24.133Z,95066.03
2023-05-10T03:38:29.656Z,95064.81
2023-05-10T03:39:33.334Z,95075.13
2023-05-10T03:40:37.184Z,95066.03
2023-05-10T03:41:40.068Z,95064.06
2023-05-10T03:42:42.098Z,95069.59
2023-05-10T03:43:44.948Z,95070.81
2023-05-10T03:44:46.858Z,95073.59
2023-05-10T03:45:49.678Z,95072.84
2023-05-10T03:46:51.600Z,95071.28
2023-05-10T03:47:55.002Z,95074.84
2023-05-10T03:48:56.952Z,95075.31
2023-05-10T03:50:00.483Z,95071.81
2023-05-10T03:51:05.081Z,95077.06
2023-05-10T03:52:07.532Z,95068.75
2023-05-10T03:53:10.758Z,95064.44
2023-05-10T03:54:12.917Z,95071.72
2023-05-10T03:55:15.782Z,95078.03
2023-05-10T03:56:17.710Z,95071.72
2023-05-10T03:57:21.891Z,95078.03
2023-05-10T03:58:23.807Z,95073.25
2023-05-10T03:59:26.637Z,95080.81
2023-05-10T04:00:28.473Z,95078.84
2023-05-10T04:01:32.104Z,95080.38
2023-05-10T04:02:34.077Z,95081.84
2023-05-10T04:03:37.871Z,95082.78
2023-05-10T04:04:40.941Z,95078.38
2023-05-10T04:05:44.028Z,95079.13
2023-05-10T04:06:47.258Z,95077.53
2023-05-10T04:07:50.837Z,95078.03
2023-05-10T04:08:52.741Z,95090.59
2023-05-10T04:09:55.600Z,95077.25
2023-05-10T04:11:07.138Z,95082.31
2023-05-10T04:12:10.949Z,95078.03
2023-05-10T04:13:13.061Z,95080.38
2023-05-10T04:14:15.946Z,95080.28
2023-05-10T04:15:18.053Z,95078.50
2023-05-10T04:16:20.964Z,95088.03
2023-05-10T04:17:22.886Z,95073.44
2023-05-10T04:18:25.705Z,95078.97
2023-05-10T04:19:30.315Z,95083.28
2023-05-10T04:20:34.669Z,95087.28
2023-05-10T04:21:37.387Z,95096.34
2023-05-10T04:22:41.731Z,95085.78
2023-05-10T04:23:43.940Z,95091.03
2023-05-10T04:24:46.784Z,95092.25
2023-05-10T04:25:48.656Z,95090.75
2023-05-10T04:26:51.602Z,95097.53
2023-05-10T04:27:53.739Z,95100.28
2023-05-10T04:28:56.579Z,95093.22
2023-05-10T04:29:58.493Z,95094.50
2023-05-10T04:31:04.981Z,95090.94
2023-05-10T04:32:06.900Z,95095.72
2023-05-10T04:33:09.769Z,95094.97
2023-05-10T04:34:11.644Z,95096.97
2023-05-10T04:35:15.810Z,95101.75
2023-05-10T04:36:17.705Z,95100.97
2023-05-10T04:37:20.929Z,95096.22
2023-05-10T04:38:24.275Z,95100.63
2023-05-10T04:39:27.200Z,95106.16
2023-05-10T04:40:29.055Z,95108.06
2023-05-10T04:41:32.203Z,95108.56
2023-05-10T04:42:34.194Z,95099.50
2023-05-10T04:43:37.698Z,95110.56
2023-05-10T04:44:39.593Z,95116.88
2023-05-10T04:45:42.566Z,95109.53
2023-05-10T04:46:45.349Z,95111.06
2023-05-10T04:47:47.251Z,95122.31
2023-05-10T04:48:50.401Z,95121.09
2023-05-10T04:49:52.210Z,95114.97
2023-05-10T04:50:55.548Z,95118.78
2023-05-10T04:51:57.490Z,95117.28
2023-05-10T04:53:00.316Z,95121.28
2023-05-10T04:54:06.590Z,95127.09
2023-05-10T04:55:10.925Z,95124.31
2023-05-10T04:56:12.889Z,95123.75
2023-05-10T04:57:15.783Z,95129.28
2023-05-10T04:58:17.705Z,95133.56
2023-05-10T04:59:20.974Z,95131.22
2023-05-10T05:00:22.897Z,95125.69
2023-05-10T05:01:25.809Z,95132.66
2023-05-10T05:02:27.800Z,95135.44
2023-05-10T05:03:30.738Z,95138.09
2023-05-10T05:04:32.708Z,95135.03
2023-05-10T05:05:35.695Z,95128.69
2023-05-10T05:06:37.596Z,95140.00
2023-05-10T05:07:40.489Z,95137.53
2023-05-10T05:08:42.384Z,95139.06
2023-05-10T05:09:46.494Z,95140.56
2023-05-10T05:10:51.113Z,95147.06
2023-05-10T05:11:53.960Z,95149.81
2023-05-10T05:12:55.900Z,95144.09
2023-05-10T05:14:00.065Z,95150.41
2023-05-10T05:15:02.349Z,95155.63
2023-05-10T05:16:06.099Z,95160.88
2023-05-10T05:17:08.476Z,95152.31
2023-05-10T05:18:11.339Z,95153.56
2023-05-10T05:19:13.289Z,95160.31
2023-05-10T05:20:16.631Z,95160.31
2023-05-10T05:21:19.530Z,95159.84
2023-05-10T05:22:28.230Z,95161.34
2023-05-10T05:23:30.200Z,95166.69
2023-05-10T05:24:38.469Z,95162.88
2023-05-10T05:25:43.044Z,95161.63
2023-05-10T05:26:45.018Z,95165.06
2023-05-10T05:27:47.863Z,95158.50
2023-05-10T05:28:52.712Z,95159.66
2023-05-10T05:29:55.806Z,95164.22
2023-05-10T05:30:57.753Z,95172.78
2023-05-10T05:32:00.619Z,95168.03
2023-05-10T05:33:03.343Z,95168.59
2023-05-10T05:34:06.377Z,95172.31
2023-05-10T05:35:08.877Z,95172.59
2023-05-10T05:36:11.763Z,95161.06
2023-05-10T05:37:14.616Z,95161.34
2023-05-10T05:38:17.517Z,95157.81
2023-05-10T05:39:19.401Z,95158.13
2023-05-10T05:40:22.441Z,95160.88
2023-05-10T05:41:26.996Z,95167.16
2023-05-10T05:42:28.880Z,95154.09
2023-05-10T05:43:31.726Z,95166.41
2023-05-10T05:44:33.661Z,95167.91
2023-05-10T05:45:36.687Z,95168.19
2023-05-10T05:46:38.970Z,95162.19
2023-05-10T05:47:42.045Z,95171.25
2023-05-10T05:48:44.011Z,95170.03
2023-05-10T05:49:47.341Z,95162.50
2023-05-10T05:50:50.226Z,95174.59
2023-05-10T05:51:52.144Z,95170.03
2023-05-10T05:52:55.370Z,95172.78
2023-05-10T05:53:57.227Z,95171.25
2023-05-10T05:55:00.139Z,95174.75
2023-05-10T05:56:04.643Z,95181.84
2023-05-10T05:57:08.490Z,95181.34
2023-05-10T05:58:11.382Z,95180.13
2023-05-10T05:59:13.415Z,95180.88
2023-05-10T06:00:17.176Z,95187.94
2023-05-10T06:01:21.295Z,95184.38
2023-05-10T06:02:24.316Z,95181.63
2023-05-10T06:03:27.234Z,95175.34
2023-05-10T06:04:29.448Z,95184.38
2023-05-10T06:05:32.633Z,95186.09
2023-05-10T06:06:34.596Z,95179.81
2023-05-10T06:07:37.501Z,95186.09
2023-05-10T06:08:39.443Z,95184.38
2023-05-10T06:09:42.317Z,95191.44
2023-05-10T06:10:45.469Z,95190.69
2023-05-10T06:11:47.669Z,95196.97
2023-05-10T06:12:51.956Z,95195.72
2023-05-10T06:13:53.902Z,95196.97
2023-05-10T06:14:56.745Z,95197.72
2023-05-10T06:16:00.185Z,95204.97
2023-05-10T06:17:05.079Z,95199.00
2023-05-10T06:18:08.266Z,95198.50
2023-05-10T06:19:10.296Z,95196.97
2023-05-10T06:20:14.495Z,95207.28
2023-05-10T06:21:17.392Z,95205.28
2023-05-10T06:22:20.305Z,95204.78
2023-05-10T06:23:23.227Z,95208.03
2023-05-10T06:24:26.157Z,95205.56
2023-05-10T06:25:29.221Z,95207.06
2023-05-10T06:26:31.130Z,95210.13
2023-05-10T06:27:34.013Z,95211.63
2023-05-10T06:28:39.434Z,95206.88
2023-05-10T06:29:41.704Z,95213.16
2023-05-10T06:30:44.598Z,95215.94
2023-05-10T06:31:47.643Z,95214.41
2023-05-10T06:32:49.580Z,95212.41
2023-05-10T06:33:54.145Z,95215.66
2023-05-10T06:34:57.196Z,95221.19
2023-05-10T06:36:00.053Z,95219.91
2023-05-10T06:37:01.952Z,95222.97
2023-05-10T06:38:04.842Z,95220.72
2023-05-10T06:39:06.753Z,95216.97
2023-05-10T06:40:10.999Z,95218.97
2023-05-10T06:41:13.798Z,95217.72
2023-05-10T06:42:15.828Z,95222.03
2023-05-10T06:43:22.658Z,95224.81
2023-05-10T06:44:26.817Z,95221.75
2023-05-10T06:45:28.682Z,95226.78
2023-05-10T06:46:31.601Z,95226.53
2023-05-10T06:47:33.879Z,95226.53
2023-05-10T06:48:37.639Z,95222.03
2023-05-10T06:49:39.570Z,95228.31
2023-05-10T06:50:42.358Z,95229.34
2023-05-10T06:51:46.025Z,95226.78
2023-05-10T06:52:49.280Z,95223.53
2023-05-10T06:53:53.837Z,95225.28
2023-05-10T06:54:55.686Z,95224.50
2023-05-10T06:55:59.044Z,95233.38
2023-05-10T06:57:02.525Z,95238.22
2023-05-10T06:58:07.157Z,95230.75
2023-05-10T06:59:09.131Z,95224.56
2023-05-10T07:00:14.198Z,95234.66
2023-05-10T07:01:17.322Z,95231.22
2023-05-10T07:02:19.478Z,95228.75
2023-05-10T07:03:22.531Z,95235.81
2023-05-10T07:04:24.527Z,95228.75
2023-05-10T07:05:28.851Z,95238.28
2023-05-10T07:06:34.073Z,95236.75
2023-05-10T07:07:37.064Z,95239.50
2023-05-10T07:08:38.897Z,95246.00
2023-05-10T07:09:41.836Z,95250.78
2023-05-10T07:10:44.708Z,95245.44
2023-05-10T07:11:46.587Z,95244.22
2023-05-10T07:12:49.635Z,95249.19
2023-05-10T07:13:52.904Z,95247.63
2023-05-10T07:14:54.773Z,95246.13
2023-05-10T07:15:59.380Z,95239.84
2023-05-10T07:17:02.395Z,95242.78
2023-05-10T07:18:07.587Z,95248.31
2023-05-10T07:19:09.997Z,95255.38
2023-05-10T07:20:13.987Z,95248.03
2023-05-10T07:21:16.000Z,95248.03
2023-05-10T07:22:19.047Z,95241.00
2023-05-10T07:23:22.186Z,95252.53
2023-05-10T07:24:25.231Z,95249.00
2023-05-10T07:25:28.334Z,95253.19
2023-05-10T07:26:30.612Z,95249.69
2023-05-10T07:27:33.537Z,95249.97
2023-05-10T07:28:37.729Z,95250.16
2023-05-10T07:29:40.886Z,95259.19
2023-05-10T07:30:43.346Z,95256.44
2023-05-10T07:31:47.536Z,95259.94
2023-05-10T07:32:49.497Z,95258.34
2023-05-10T07:33:52.529Z,95249.78
2023-05-10T07:34:54.440Z,95249.28
2023-05-10T07:35:57.383Z,95248.25
2023-05-10T07:36:59.869Z,95250.53
2023-05-10T07:38:03.001Z,95258.53
2023-05-10T07:39:06.294Z,95260.06
2023-05-10T07:40:10.561Z,95247.00
2023-05-10T07:41:14.068Z,95255.31
2023-05-10T07:42:16.855Z,95254.25
2023-05-10T07:43:18.741Z,95250.53
2023-05-10T07:44:21.540Z,95245.75
2023-05-10T07:45:24.405Z,95252.84
2023-05-10T07:46:26.589Z,95248.81
2023-05-10T07:47:30.936Z,95253.09
2023-05-10T07:48:33.907Z,95246.34
2023-05-10T07:49:36.622Z,95247.84
2023-05-10T07:50:39.512Z,95247.84
2023-05-10T07:51:41.408Z,95243.88
2023-05-10T07:52:44.362Z,95249.38
2023-05-10T07:53:47.255Z,95249.38
2023-05-10T07:54:50.113Z,95246.13
2023-05-10T07:55:52.760Z,95253.94
2023-05-10T07:56:55.704Z,95256.25
2023-05-10T07:57:57.812Z,95250.72
2023-05-10T07:59:01.535Z,95256.25
2023-05-10T08:00:04.440Z,95253.00
2023-05-10T08:01:16.250Z,95251.75
2023-05-10T08:02:19.273Z,95247.47
2023-05-10T08:03:23.792Z,95253.00
2023-05-10T08:04:25.918Z,95248.72
2023-05-10T08:05:28.814Z,95249.97
2023-05-10T08:06:31.773Z,95252.72
2023-05-10T08:07:34.622Z,95249.19
2023-05-10T08:08:36.513Z,95254.72
2023-05-10T08:09:39.460Z,95253.66
2023-05-10T08:10:41.417Z,95244.63
2023-05-10T08:11:44.277Z,95251.88
2023-05-10T08:12:47.161Z,95252.63
2023-05-10T08:13:51.486Z,95251.41
2023-05-10T08:14:54.969Z,95250.16
2023-05-10T08:15:59.087Z,95246.91
2023-05-10T08:17:02.073Z,95251.94
2023-05-10T08:18:05.271Z,95249.69
2023-05-10T08:19:09.812Z,95244.16
2023-05-10T08:20:13.856Z,95253.19
2023-05-10T08:21:16.490Z,95237.38
2023-05-10T08:22:19.447Z,95248.44
2023-05-10T08:23:21.726Z,95245.94
2023-05-10T08:24:24.933Z,95244.69
2023-05-10T08:25:26.984Z,95251.47
2023-05-10T08:26:29.807Z,95249.97
2023-05-10T08:27:31.674Z,95253.94
2023-05-10T08:28:34.669Z,95251.19
2023-05-10T08:29:48.829Z,95250.16
2023-05-10T08:30:53.192Z,95252.16
2023-05-10T08:31:56.213Z,95256.72
2023-05-10T08:32:59.277Z,95250.91
2023-05-10T08:34:02.349Z,95245.94
2023-05-10T08:35:07.661Z,95250.03
2023-05-10T08:36:10.721Z,95249.56
2023-05-10T08:37:14.334Z,95248.59
2023-05-10T08:38:17.556Z,95247.63
2023-05-10T08:39:29.713Z,95248.88
2023-05-10T08:40:32.677Z,95249.75
2023-05-10T08:41:37.616Z,95250.50
2023-05-10T08:42:42.084Z,95255.34
2023-05-10T08:43:47.246Z,95247.63
2023-05-10T08:44:50.905Z,95256.97
2023-05-10T08:45:56.456Z,95254.47
2023-05-10T08:47:01.462Z,95256.00
2023-05-10T08:48:07.234Z,95258.47
2023-05-10T08:49:11.211Z,95255.63
2023-05-10T08:50:17.110Z,95252.66
2023-05-10T08:51:27.713Z,95252.41
2023-05-10T08:52:31.264Z,95263.47
2023-05-10T08:53:35.873Z,95263.47
2023-05-10T08:54:38.150Z,95255.63
2023-05-10T08:55:43.225Z,95257.84
2023-05-10T08:56:48.577Z,95262.31
2023-05-10T08:57:52.631Z,95270.34
2023-05-10T08:58:56.039Z,95264.22
2023-05-10T08:59:58.114Z,95263.00
2023-05-10T09:01:01.919Z,95265.75
2023-05-10T09:02:05.981Z,95261.19
2023-05-10T09:03:08.938Z,95264.44
2023-05-10T09:04:11.271Z,95266.16
2023-05-10T09:05:17.163Z,95265.88
2023-05-10T09:06:20.783Z,95265.00
2023-05-10T09:07:23.043Z,95269.56
2023-05-10T09:08:27.447Z,95268.81
2023-05-10T09:09:29.988Z,95262.53
2023-05-10T09:10:33.652Z,95264.84
2023-05-10T09:11:36.050Z,95269.56
2023-05-10T09:12:39.615Z,95258.53
2023-05-10T09:13:42.773Z,95263.78
2023-05-10T09:14:47.832Z,95262.81
2023-05-10T09:15:50.934Z,95271.41
2023-05-10T09:16:55.186Z,95260.34
2023-05-10T09:18:00.470Z,95267.38
2023-05-10T09:19:02.565Z,95263.41
2023-05-10T09:20:06.718Z,95261.69
2023-05-10T09:21:12.013Z,95264.44
2023-05-10T09:22:14.295Z,95259.66
2023-05-10T09:23:17.081Z,95266.16
2023-05-10T09:24:21.194Z,95264.63
2023-05-10T09:25:24.158Z,95262.13
2023-05-10T09:26:26.096Z,95266.72
2023-05-10T09:27:29.154Z,95264.22
2023-05-10T09:28:34.320Z,95265.47
2023-05-10T09:29:44.946Z,95268.53
2023-05-10T09:30:56.514Z,95266.72
2023-05-10T09:31:59.554Z,95265.19
2023-05-10T09:33:02.934Z,95262.13
2023-05-10T09:34:04.900Z,95265.47
2023-05-10T09:35:12.001Z,95266.72
2023-05-10T09:36:17.227Z,95266.72
2023-05-10T09:37:20.120Z,95260.25
2023-05-10T09:38:23.704Z,95268.25
2023-05-10T09:39:33.120Z,95260.25
2023-05-10T09:40:35.973Z,95261.19
2023-05-10T09:41:37.867Z,95254.81
2023-05-10T09:42:40.955Z,95258.41
2023-05-10T09:43:42.787Z,95257.66
2023-05-10T09:44:48.937Z,95256.91
2023-05-10T09:45:50.860Z,95256.63
2023-05-10T09:46:53.803Z,95256.63
2023-05-10T09:47:57.178Z,95259.66
2023-05-10T09:49:00.187Z,95258.41
2023-05-10T09:50:05.494Z,95261.69
2023-05-10T09:51:08.024Z,95260.41
2023-05-10T09:52:13.626Z,95266.72
2023-05-10T09:53:17.837Z,95263.00
2023-05-10T09:56:01.443Z,95264.81
2023-05-10T09:57:04.538Z,95260.59
2023-05-10T09:58:11.508Z,95255.06
2023-05-10T09:59:13.963Z,95254.88
2023-05-10T10:00:21.514Z,95253.44
2023-05-10T10:01:27.211Z,95255.22
2023-05-10T10:02:31.252Z,95254.78
2023-05-10T10:03:34.136Z,95251.59
2023-05-10T10:04:40.424Z,95257.69
2023-05-10T10:05:44.490Z,95250.25
2023-05-10T10:06:46.443Z,95245.75
2023-05-10T10:07:51.423Z,95238.03
2023-05-10T10:08:57.097Z,95248.13
2023-05-10T10:09:59.890Z,95246.41
2023-05-10T10:11:03.223Z,95239.16
2023-05-10T10:12:05.758Z,95240.66
2023-05-10T10:13:08.986Z,95235.88
2023-05-10T10:14:13.608Z,95233.09
2023-05-10T10:15:17.144Z,95239.91
2023-05-10T10:16:20.180Z,95234.84
2023-05-10T10:17:22.748Z,95233.81
2023-05-10T10:18:28.143Z,95244.31
2023-05-10T10:19:34.834Z,95247.00
2023-05-10T10:20:38.472Z,95251.97
2023-05-10T10:21:41.455Z,95250.47
2023-05-10T10:22:44.815Z,95248.16
2023-05-10T10:23:49.790Z,95248.34
2023-05-10T10:24:52.893Z,95252.81
2023-05-10T10:25:57.146Z,95252.53
2023-05-10T10:27:08.985Z,95247.50
2023-05-10T10:28:25.008Z,95247.69
2023-05-10T10:29:37.570Z,95249.22
2023-05-10T10:30:43.738Z,95243.41
2023-05-10T10:31:51.187Z,95246.66
2023-05-10T10:33:27.327Z,95247.91
2023-05-10T10:34:33.165Z,95243.13
2023-05-10T10:35:36.274Z,95245.91
2023-05-10T10:36:43.058Z,95247.41
2023-05-10T10:37:46.570Z,95238.63
2023-05-10T10:39:05.048Z,95249.22
2023-05-10T10:40:26.713Z,95245.97
2023-05-10T10:41:32.022Z,95243.69
2023-05-10T10:42:50.773Z,95245.69
2023-05-10T10:44:40.198Z,95241.88
2023-05-10T10:45:42.371Z,95240.38
2023-05-10T10:47:09.567Z,95238.81
2023-05-10T10:48:23.417Z,95243.88
2023-05-10T10:49:25.968Z,95243.13
2023-05-10T10:50:29.042Z,95247.06
2023-05-10T10:51:32.214Z,95238.28
2023-05-10T10:52:39.096Z,95247.34
2023-05-10T10:53:41.880Z,95247.34
2023-05-10T10:54:52.730Z,95242.56
2023-05-10T10:56:07.086Z,95249.34
2023-05-10T10:57:13.646Z,95250.28
2023-05-10T10:58:32.530Z,95253.44
2023-05-10T10:59:34.405Z,95246.13
2023-05-10T11:00:38.905Z,95260.41
2023-05-10T11:01:45.079Z,95257.41
2023-05-10T11:02:49.714Z,95261.28
2023-05-10T11:04:20.812Z,95264.03
2023-05-10T11:05:37.851Z,95254.41
2023-05-10T11:06:41.231Z,95265.00
2023-05-10T11:07:52.946Z,95271.00
2023-05-10T11:08:55.946Z,95273.97
2023-05-10T11:10:05.876Z,95268.34
2023-05-10T11:11:09.914Z,95271.88
2023-05-10T11:12:12.426Z,95266.75
2023-05-10T11:13:15.414Z,95271.19
2023-05-10T11:14:22.273Z,95266.16
2023-05-10T11:15:32.050Z,95272.63
2023-05-10T11:16:43.781Z,95276.06
2023-05-10T11:17:48.354Z,95277.59
2023-05-10T11:18:55.888Z,95277.31
2023-05-10T11:20:10.081Z,95277.59
2023-05-10T11:21:12.953Z,95284.06
2023-05-10T11:22:14.996Z,95284.06
2023-05-10T11:23:18.922Z,95284.81
2023-05-10T11:24:23.208Z,95277.31
2023-05-10T11:25:29.075Z,95284.34
2023-05-10T11:26:34.437Z,95281.88
2023-05-10T11:27:39.428Z,95288.66
2023-05-10T11:28:42.615Z,95284.66
2023-05-10T11:29:46.328Z,95286.94
2023-05-10T11:30:48.474Z,95290.00
2023-05-10T11:31:51.865Z,95290.47
2023-05-10T11:32:54.167Z,95292.75
2023-05-10T11:34:02.617Z,95286.72
2023-05-10T11:35:08.325Z,95295.31
2023-05-10T11:36:13.443Z,95291.78
2023-05-10T11:37:16.325Z,95297.63
2023-05-10T11:38:19.325Z,95293.59
2023-05-10T11:39:21.840Z,95302.19
2023-05-10T11:40:25.720Z,95294.38
2023-05-10T11:41:31.626Z,95303.72
2023-05-10T11:42:34.548Z,95300.16
2023-05-10T11:43:39.282Z,95305.22
2023-05-10T11:44:42.961Z,95307.25
2023-05-10T11:45:46.302Z,95302.94
2023-05-10T11:46:49.204Z,95305.69
2023-05-10T11:47:51.273Z,95311.22
2023-05-10T11:48:56.186Z,95310.00
2023-05-10T11:49:58.293Z,95305.69
2023-05-10T11:51:03.031Z,95304.47
2023-05-10T11:52:07.137Z,95310.00
2023-05-10T11:53:09.040Z,95306.19
2023-05-10T11:54:13.742Z,95300.38
2023-05-10T11:55:15.923Z,95299.63
2023-05-10T11:56:21.609Z,95298.09
2023-05-10T11:57:28.562Z,95296.56
2023-05-10T11:58:32.347Z,95299.34
2023-05-10T11:59:34.235Z,95299.34
2023-05-10T12:00:37.248Z,95306.88
2023-05-10T12:01:40.280Z,95298.56
2023-05-10T12:02:42.577Z,95310.38
2023-05-10T12:03:46.313Z,95306.06
2023-05-10T12:04:48.803Z,95298.56
2023-05-10T12:05:51.841Z,95304.84
2023-05-10T12:06:53.784Z,95304.84
2023-05-10T12:08:14.763Z,95308.38
2023-05-10T12:09:20.978Z,95306.38
2023-05-10T12:10:31.117Z,95310.38
2023-05-10T12:11:33.024Z,95311.91
2023-05-10T12:12:44.373Z,95320.19
2023-05-10T12:13:47.512Z,95308.84
2023-05-10T12:14:52.470Z,95315.91
2023-05-10T12:15:54.511Z,95313.16
2023-05-10T12:16:59.361Z,95310.38
2023-05-10T12:18:02.190Z,95310.38
2023-05-10T12:19:06.455Z,95316.19
2023-05-10T12:20:16.460Z,95307.91
2023-05-10T12:21:21.485Z,95314.94
2023-05-10T12:22:23.457Z,95310.19
2023-05-10T12:23:26.346Z,95308.19
2023-05-10T12:24:28.284Z,95305.44
2023-05-10T12:25:33.617Z,95304.66
2023-05-10T12:26:37.772Z,95303.91
2023-05-10T12:27:40.713Z,95305.44
2023-05-10T12:28:45.392Z,95309.72
2023-05-10T12:29:49.661Z,95311.72
2023-05-10T12:30:55.477Z,95315.25
2023-05-10T12:31:58.789Z,95310.97
2023-05-10T12:33:04.444Z,95311.72
2023-05-10T12:34:10.112Z,95318.00
2023-05-10T12:35:13.146Z,95322.28
2023-05-10T12:36:17.763Z,95324.28
2023-05-10T12:37:25.286Z,95327.53
2023-05-10T12:38:30.589Z,95327.53
2023-05-10T12:39:43.517Z,95341.38
2023-05-10T12:40:45.544Z,95339.34